Aviation Digital Data Service (ADDS)

Output produced by METARs form (1103 UTC 13 December 2017)
found at http://www.aviationweather.gov/adds/metars/
 
EBBE 131055Z 21021KT 8000 SCT011 BKN014 BKN020 04/03 Q1001 GRN GRN TEMPO YLO
TAF EBBE 130904Z 1310/1319 19018G30KT 8000 -RA SCT009 BKN012 
     TEMPO 1310/1313 4000 RADZ SCT005 BKN010 
     TEMPO 1311/1313 9999 SCT007 BKN010 
     TEMPO 1313/1319 20020G35KT 4000 SHRA RA SCT005 BKN009
       
EBBR 131050Z 21016KT 9999 -RA FEW008 BKN010 05/04 Q1000 NOSIG
TAF EBBR 130500Z 1306/1412 21016G27KT 8000 BKN014 
     TEMPO 1306/1310 4000 RADZ SCT005 BKN008 
     TEMPO 1311/1314 21013KT BKN020 
     TEMPO 1314/1319 4000 RA SHRA BKN008 SCT015TCU 
     BECMG 1319/1321 25013KT SCT020 SCT040 
     PROB40 
     TEMPO 1322/1401 24017G28KT 3500 SHRASNGS BKN006 SCT015CB 
     PROB30 
     TEMPO 1409/1412 23015G25KT 4500 SHRA SCT008 BKN014TCU
       
EBCI 131050Z 21017KT 9999 BKN006 BKN009 03/03 Q1002 TEMPO 20020G30KT 4000 RADZ BKN005
TAF EBCI 130500Z 1306/1412 21017G28KT 7000 SCT008 BKN013 
     TEMPO 1306/1311 3500 RADZ SCT004 BKN007 
     TEMPO 1312/1314 21013KT BKN016 
     TEMPO 1314/1320 4000 RA SHRA BKN007 SCT015TCU 
     BECMG 1319/1321 26013KT 8000 NSW SCT015 BKN030 
     PROB40 
     TEMPO 1322/1401 25018G28KT 3000 SHRASNGS BKN005 SCT015CB 
     PROB30 
     TEMPO 1408/1412 23015G25KT 4000 SHRASN SCT006 BKN012TCU
       
EBCV 131055Z AUTO 25011KT 9999 OVC008/// 06/05 Q1002 GRN
TAF EBCV 130841Z 1310/1319 19015G30KT 9999 -RA BKN015 BKN020 
     TEMPO 1310/1319 19020G35KT 3000 RA SHRA BKN006 BKN012 
     PROB30 
     TEMPO 1310/1319 19022G40KT BY EBWM
       
EBAW 131050Z 21013KT 180V240 9999 SCT007 BKN008 05/03 Q1000 TEMPO 20015G25KT
TAF COR EBAW 130840Z 1309/1318 19015KT 8000 -RA -RADZ SCT008 BKN014 
     TEMPO 1309/1318 20017G28KT 3500 RA RADZ SCT005 BKN008
       
EBFS 131055Z 19017KT 5000 -RASN SCT006 BKN008 02/01 Q1002 YLO YLO
TAF EBFS 130841Z 1310/1319 20025G35KT 6000 -RASN SCT005 BKN008 
     TEMPO 1311/1314 8000 SCT008 BKN010 
     BECMG 1314/1315 4000 RA SCT003 BKN005 
     TEMPO 1315/1319 2000 +RA SCT002 BKN004
       
EBBL 131055Z 21014G27KT 3000 -RADZ FEW009 BKN011 04/03 Q1000 YLO GRN TEMPO YLO
TAF EBBL 130843Z 1310/1319 22012KT 5000 -RA BKN010 
     TEMPO 1310/1319 22015G30KT 3000 RA BKN005
       
EBFN 131055Z 25011KT 9999 FEW007 SCT020 BKN080 08/05 Q1000 WHT WHT TEMPO GRN
TAF AMD EBFN 130939Z 1310/1319 20015G30KT 9999 SCT020 BKN050 
     TEMPO 1310/1317 20020G35KT 4000 -SHRA -RA SCT012 BKN020
       
EBLG 131050Z 20025G36KT 9999 FEW011 BKN014 BKN027 04/02 Q1002 TEMPO 20020G35KT BKN010
TAF EBLG 130500Z 1306/1412 21017G28KT 9999 SCT009 BKN014 
     TEMPO 1307/1312 3500 RADZ SCT005 BKN007 
     TEMPO 1312/1316 20013KT BKN016 
     TEMPO 1316/1321 4000 RA SHRA BKN008 SCT015TCU 
     BECMG 1320/1322 25013KT 8000 NSW SCT018 BKN040 
     PROB40 
     TEMPO 1400/1403 25018G28KT 3000 SHRASNGS BKN006 SCT015CB 
     PROB30 
     TEMPO 1409/1412 23015G25KT 4000 SHRASN SCT007 BKN012TCU
       
EBOS 131050Z 25014KT 9999 FEW015 07/05 Q0999 TEMPO 2500 BKN008
TAF EBOS 130500Z 1306/1412 20015G25KT 9999 SCT015 BKN025 
     TEMPO 1306/1308 20021G36KT 4000 RADZ SCT006 BKN009 
     BECMG 1308/1310 26017KT 
     TEMPO 1312/1318 22018G30KT 4000 RA SHRA SCT008 BKN014TCU 
     BECMG 1317/1319 29022G35KT 9999 NSW SCT025 
     BECMG 1319/1321 26022G35KT 
     PROB30 
     TEMPO 1321/1324 29025G40KT 4000 SHRA BKN012 SCT020CB 
     PROB30 
     TEMPO 1406/1409 4500 SHRA 
     BECMG 1408/1411 25015G25KT